Terminal Aerodrome Forecast
Issued by NWS Birmingham, AL

Home | Current Version | Previous Version | Text Only | Print | Product List | Glossary On
Versions: 1 2 3 4 5 6 7 8 9 10 11 12 13 14
186
FTUS44 KBMX 031120
TAFBHM
TAF
KBHM 031120Z 0312/0412 04004KT P6SM BKN150
     FM031800 06007KT P6SM -RA SCT050 OVC080
     FM040800 07006KT 5SM -RA BKN020 OVC035=

USA.gov is the U.S. government's official web portal to all federal, state and local government web resources and services.